< < Back
Terminal Aerodrome Forecast


Current Version              Previous Versions:   1  2  3  4  5  6  7  8  9  

Terminal Aerodrome Forecast

781
FTUS44 KMRX 300523
TAFTYS
TAF
KTYS 300523Z 3006/3106 28003KT P6SM FEW035
     FM301500 35008KT P6SM SCT050
     FM310100 01005KT P6SM SKC=

Latest METAR

555
SAUS80 KWBC 301200
MTRTYS
METAR KTYS 301153Z 36003KT 9SM FEW039 SCT180 SCT250 26/22 A3003 RMK AO2
SLP155 T02560222 10261 20244 53011


USA.gov is the U.S. government's official web portal to all federal, state and local government web resources and services.